createdAt,value
2023-03-29T00:02:23.399Z,44.5
2023-03-29T00:07:29.426Z,44.5
2023-03-29T00:12:35.492Z,44.5
2023-03-29T00:17:41.559Z,44.5
2023-03-29T00:22:47.633Z,44.5
2023-03-29T00:27:55.537Z,44.5
2023-03-29T00:33:01.638Z,44.5
2023-03-29T00:38:07.667Z,44
2023-03-29T00:43:15.617Z,44
2023-03-29T00:48:21.667Z,44
2023-03-29T00:53:27.717Z,44
2023-03-29T00:58:33.788Z,44
2023-03-29T01:03:39.955Z,44
2023-03-29T01:08:45.929Z,44
2023-03-29T01:13:51.962Z,44
2023-03-29T01:18:58.001Z,44
2023-03-29T01:24:04.075Z,44
2023-03-29T01:29:10.135Z,44
2023-03-29T01:34:18.072Z,44
2023-03-29T01:39:24.163Z,44
2023-03-29T01:44:30.185Z,44
2023-03-29T01:49:36.249Z,44.5
2023-03-29T01:54:42.328Z,44.5
2023-03-29T01:59:48.368Z,44.5
2023-03-29T02:04:54.428Z,44.5
2023-03-29T02:10:02.386Z,44.5
2023-03-29T02:15:08.408Z,44.5
2023-03-29T02:20:14.773Z,44.5
2023-03-29T02:25:20.526Z,44
2023-03-29T02:30:26.577Z,44
2023-03-29T02:35:32.679Z,44
2023-03-29T02:40:38.699Z,44
2023-03-29T02:45:44.760Z,44
2023-03-29T02:50:50.821Z,44
2023-03-29T02:55:56.909Z,44
2023-03-29T03:01:03.230Z,44
2023-03-29T03:06:08.998Z,44
2023-03-29T03:11:15.061Z,44
2023-03-29T03:16:21.143Z,44
2023-03-29T03:21:27.177Z,44
2023-03-29T03:26:33.231Z,44
2023-03-29T03:31:39.361Z,44
2023-03-29T03:36:45.361Z,44
2023-03-29T03:41:52.536Z,44
2023-03-29T03:47:00.493Z,44.5
2023-03-29T03:52:06.545Z,44.5
2023-03-29T03:57:12.720Z,44.5
2023-03-29T04:02:18.681Z,44.5
2023-03-29T04:07:24.738Z,44.5
2023-03-29T04:12:30.782Z,44
2023-03-29T04:17:38.860Z,44
2023-03-29T04:22:44.767Z,44
2023-03-29T04:27:52.694Z,44
2023-03-29T04:32:58.770Z,44
2023-03-29T04:38:04.807Z,44
2023-03-29T04:43:10.874Z,44
2023-03-29T04:48:16.943Z,44.5
2023-03-29T04:53:23.016Z,44.5
2023-03-29T05:03:35.121Z,44
2023-03-29T05:08:41.223Z,44
2023-03-29T05:13:47.237Z,44
2023-03-29T05:18:53.311Z,44
2023-03-29T05:24:01.219Z,44.5
2023-03-29T05:29:09.183Z,44.5
2023-03-29T05:34:17.124Z,44.5
2023-03-29T05:39:25.104Z,44.5
2023-03-29T05:44:31.117Z,44.5
2023-03-29T05:49:37.150Z,44.5
2023-03-29T05:54:43.233Z,44.5
2023-03-29T05:59:49.304Z,44.5
2023-03-29T06:04:57.281Z,44.5
2023-03-29T06:10:03.302Z,44.5
2023-03-29T06:15:09.370Z,44.5
2023-03-29T06:20:17.281Z,44.5
2023-03-29T06:25:23.342Z,44.5
2023-03-29T06:30:29.444Z,44.5
2023-03-29T06:35:35.520Z,44.5
2023-03-29T06:40:41.528Z,44.5
2023-03-29T06:45:47.572Z,44.5
2023-03-29T06:50:53.659Z,44.5
2023-03-29T06:55:59.705Z,44.5
2023-03-29T07:01:06.059Z,44.5
2023-03-29T07:06:11.830Z,44.5
2023-03-29T07:11:17.874Z,44.5
2023-03-29T07:16:24.123Z,44.5
2023-03-29T07:21:29.994Z,44.5
2023-03-29T07:26:36.052Z,44.5
2023-03-29T07:31:42.108Z,44.5
2023-03-29T07:36:48.177Z,44.5
2023-03-29T07:41:54.238Z,44.5
2023-03-29T07:47:00.311Z,44.5
2023-03-29T07:52:06.354Z,44.5
2023-03-29T07:57:12.444Z,44.5
2023-03-29T08:02:20.342Z,45
2023-03-29T08:07:28.305Z,45
2023-03-29T08:12:34.359Z,45
2023-03-29T08:17:40.437Z,45
2023-03-29T08:22:46.502Z,45
2023-03-29T08:33:00.583Z,45.5
2023-03-29T08:38:06.513Z,45.5
2023-03-29T08:43:12.587Z,45.5
2023-03-29T08:48:18.641Z,45.5
2023-03-29T08:53:24.703Z,45.5
2023-03-29T08:58:30.790Z,45.5
2023-03-29T09:03:36.978Z,45.5
2023-03-29T09:08:42.925Z,45.5
2023-03-29T09:13:48.957Z,45.5
2023-03-29T09:18:54.988Z,45.5
2023-03-29T09:24:01.057Z,45.5
2023-03-29T09:29:09.454Z,45.5
2023-03-29T09:34:15.930Z,45.5
2023-03-29T09:39:21.135Z,45.5
2023-03-29T09:44:31.366Z,45.5
2023-03-29T09:49:35.112Z,45.5
2023-03-29T09:54:41.147Z,45.5
2023-03-29T09:59:47.230Z,45.5
2023-03-29T10:04:55.168Z,45.5
2023-03-29T10:10:01.210Z,45.5
2023-03-29T10:15:11.708Z,45.5
2023-03-29T10:20:13.333Z,45.5
2023-03-29T10:25:19.407Z,45.5
2023-03-29T10:30:25.484Z,45.5
2023-03-29T10:35:31.553Z,45.5
2023-03-29T10:40:39.464Z,45.5
2023-03-29T10:45:45.574Z,45.5
2023-03-29T10:50:53.476Z,45.5
2023-03-29T10:55:59.511Z,46
2023-03-29T11:01:07.520Z,46
2023-03-29T11:06:13.509Z,46
2023-03-29T11:11:19.565Z,46
2023-03-29T11:16:25.658Z,46
2023-03-29T11:21:31.687Z,46
2023-03-29T11:26:39.638Z,46
2023-03-29T11:31:45.749Z,46
2023-03-29T11:36:51.753Z,46
2023-03-29T11:47:05.785Z,46
2023-03-29T11:52:11.812Z,46
2023-03-29T11:57:17.923Z,46
2023-03-29T12:02:24.024Z,46.5
2023-03-29T12:07:29.983Z,46.5
2023-03-29T12:12:36.036Z,46.5
2023-03-29T12:17:42.176Z,46.5
2023-03-29T12:27:54.224Z,46.5
2023-03-29T12:33:00.359Z,46.5
2023-03-29T12:38:06.324Z,46.5
2023-03-29T12:43:12.404Z,46.5
2023-03-29T12:48:20.358Z,46.5
2023-03-29T12:53:28.289Z,46.5
2023-03-29T12:58:36.246Z,46.5
2023-03-29T13:03:44.225Z,46.5
2023-03-29T13:08:52.134Z,46.5
2023-03-29T13:14:00.100Z,46.5
2023-03-29T13:19:08.033Z,46.5
2023-03-29T13:24:14.088Z,46.5
2023-03-29T13:29:22.040Z,46.5
2023-03-29T13:34:28.125Z,46.5
2023-03-29T13:39:34.140Z,46.5
2023-03-29T13:44:40.172Z,46.5
2023-03-29T13:49:46.262Z,46.5
2023-03-29T13:54:52.316Z,46.5
2023-03-29T13:59:58.360Z,46.5
2023-03-29T14:05:04.433Z,46.5
2023-03-29T14:10:10.477Z,46.5
2023-03-29T14:15:16.603Z,46.5
2023-03-29T14:20:22.616Z,47
2023-03-29T14:25:28.641Z,47
2023-03-29T14:30:34.698Z,47
2023-03-29T14:35:40.889Z,47
2023-03-29T14:40:46.824Z,47
2023-03-29T14:45:54.801Z,47.5
2023-03-29T14:51:01.066Z,47.5
2023-03-29T14:56:06.872Z,47.5
2023-03-29T15:01:14.842Z,47.5
2023-03-29T15:06:20.868Z,47.5
2023-03-29T15:11:26.942Z,47.5
2023-03-29T15:16:33.062Z,47.5
2023-03-29T15:21:39.078Z,47.5
2023-03-29T15:26:45.129Z,47.5
2023-03-29T15:31:53.096Z,47.5
2023-03-29T15:36:59.158Z,47.5
2023-03-29T15:42:07.050Z,47.5
2023-03-29T15:47:13.109Z,47.5
2023-03-29T15:52:19.166Z,47.5
2023-03-29T15:57:25.380Z,47.5
2023-03-29T16:02:33.238Z,47.5
2023-03-29T16:07:39.221Z,48
2023-03-29T16:12:47.133Z,48
2023-03-29T16:17:53.235Z,48
2023-03-29T16:23:01.143Z,48
2023-03-29T16:28:09.113Z,48
2023-03-29T16:33:17.080Z,48
2023-03-29T16:38:23.084Z,48
2023-03-29T16:43:31.014Z,48
2023-03-29T16:48:38.974Z,48
2023-03-29T16:53:46.984Z,48
2023-03-29T16:58:54.889Z,48
2023-03-29T17:04:02.865Z,48
2023-03-29T17:09:10.764Z,48
2023-03-29T17:14:16.844Z,48
2023-03-29T17:19:22.994Z,48
2023-03-29T17:24:28.974Z,48
2023-03-29T17:29:36.878Z,48
2023-03-29T17:34:42.932Z,48
2023-03-29T17:39:49.006Z,48
2023-03-29T17:44:55.295Z,48
2023-03-29T17:50:01.126Z,48
2023-03-29T17:55:07.178Z,48
2023-03-29T18:00:15.145Z,48
2023-03-29T18:10:29.129Z,48
2023-03-29T18:15:35.149Z,48
2023-03-29T18:20:41.210Z,48
2023-03-29T18:25:47.297Z,48
2023-03-29T18:30:55.229Z,48
2023-03-29T18:41:07.324Z,47.5
2023-03-29T18:46:15.311Z,48
2023-03-29T18:51:21.321Z,48
2023-03-29T18:56:27.394Z,48
2023-03-29T19:01:33.492Z,48
2023-03-29T19:06:41.416Z,48
2023-03-29T19:11:47.458Z,48
2023-03-29T19:16:55.385Z,48
2023-03-29T19:22:01.452Z,48
2023-03-29T19:27:07.522Z,48
2023-03-29T19:32:13.560Z,48
2023-03-29T19:37:19.641Z,48
2023-03-29T19:42:25.705Z,48
2023-03-29T19:47:33.678Z,47.5
2023-03-29T19:52:41.581Z,48
2023-03-29T19:57:47.622Z,48
2023-03-29T20:02:53.674Z,48
2023-03-29T20:07:59.735Z,48
2023-03-29T20:13:05.791Z,48
2023-03-29T20:18:11.947Z,48
2023-03-29T20:23:19.803Z,48
2023-03-29T20:28:25.857Z,48
2023-03-29T20:33:31.908Z,48
2023-03-29T20:38:39.837Z,48
2023-03-29T20:43:47.817Z,48
2023-03-29T20:48:55.746Z,48
2023-03-29T20:54:03.707Z,48
2023-03-29T20:59:11.647Z,48
2023-03-29T21:04:19.608Z,48
2023-03-29T21:09:27.537Z,48
2023-03-29T21:14:35.499Z,48
2023-03-29T21:19:43.430Z,48
2023-03-29T21:24:51.358Z,48
2023-03-29T21:29:57.432Z,48
2023-03-29T21:35:03.489Z,48
2023-03-29T21:40:09.567Z,48
2023-03-29T21:45:15.595Z,48
2023-03-29T21:50:21.664Z,48
2023-03-29T21:55:27.738Z,48
2023-03-29T22:00:33.829Z,48
2023-03-29T22:05:41.733Z,47.5
2023-03-29T22:10:47.809Z,48
2023-03-29T22:15:53.844Z,48
2023-03-29T22:20:59.910Z,48
2023-03-29T22:26:05.969Z,48
2023-03-29T22:31:12.028Z,48
2023-03-29T22:36:18.128Z,48
2023-03-29T22:41:24.150Z,48
2023-03-29T22:46:30.310Z,48
2023-03-29T22:51:38.146Z,48
2023-03-29T22:56:44.212Z,48
2023-03-29T23:01:50.320Z,48
2023-03-29T23:06:56.320Z,47.5
2023-03-29T23:12:02.366Z,47.5
2023-03-29T23:17:08.508Z,47.5
2023-03-29T23:22:14.470Z,48
2023-03-29T23:27:20.534Z,48
2023-03-29T23:32:28.646Z,48
2023-03-29T23:37:34.544Z,48
2023-03-29T23:42:42.483Z,48
2023-03-29T23:47:50.455Z,48
2023-03-29T23:52:56.481Z,48
2023-03-29T23:58:02.528Z,48
